Thisted, Denmark

8:09 AM CET on February 12, 2016 (GMT +0100)
Fur | | Change Station
CLOSE
Current Station
Personal Weather Station
Location: Fur,
Elevation: 13 ft
Nearby Weather Stations

Elev 13 ft 56.80 °N, 9.01 °E | Updated 33 seconds ago

Partly Cloudy
Partly Cloudy
32.2 °F
Feels Like 29 °F
N
3.4
Wind Variable Wind from NE
Gusts 4.9 mph

Today
High -- | Low -- °F
--% Chance of Precip.
Yesterday
High -- | Low -- °F
Precip. -- in
Pressure 29.59 in
Visibility 6.2 miles
Clouds Few 2700 ft
Windchill 29 °F
Dew Point 21 °F
Humidity 62%
Rainfall 0.00 in
Snow Depth Not available.
8:02 AM 5:17 PM
Waxing Crescent, 18% visible
METAR EKYT 120650Z 32002KT 9999 FEW027 M02/M05 Q1002
Pressure 29.59 in
Visibility 6.2 miles
Clouds Few 2700 ft
Windchill 29 °F
Dew Point 21 °F
Humidity 62%
Rainfall 0.00 in
Snow Depth Not available.
8:02 AM 5:17 PM
Waxing Crescent, 18% visible
METAR EKYT 120650Z 32002KT 9999 FEW027 M02/M05 Q1002

10-Day Weather Forecast

Almanac

Astronomy

Feb. 12, 2016 Rise Set
Actual Time
Civil Twilight
Nautical Twilight
Astronomical Twilight
Moon
Length of Visible Light
Length of Day
Tomorrow will be .
, % of the Moon is Illuminated

Today's Extremes

Country Highs Country Lows

Community

WunderPhotos

Upload Photos

1,892,278 photos uploaded!

WunderBlog® & News

Nearby

Air Quality

  Air Quality AQ Index Pollutant
Not available.

Snow Depth

Station Depth Elevation

Earthquake Activity

City Distance Mag. Time & Date
Minimum magnitude displayed is 2.5.

Coastal Water Temperatures

Place Temperature

Stations

Nearby Weather Stations

Station Location Temp. Windchill Dew Point Humidity Wind Precip. Elev Updated Type